sensor_id;sensor_type;location;lat;lon;timestamp;P1;durP1;ratioP1;P2;durP2;ratioP2
22240;SDS011;11289;52.524;13.694;2023-10-19T00:00:54;20.83;;;14.27;;
22240;SDS011;11289;52.524;13.694;2023-10-19T00:03:22;21.17;;;15.13;;
22240;SDS011;11289;52.524;13.694;2023-10-19T00:05:52;22.77;;;14.52;;
22240;SDS011;11289;52.524;13.694;2023-10-19T00:08:21;20.15;;;14.25;;
22240;SDS011;11289;52.524;13.694;2023-10-19T00:10:49;20.25;;;14.57;;
22240;SDS011;11289;52.524;13.694;2023-10-19T00:13:36;20.65;;;14.85;;
22240;SDS011;11289;52.524;13.694;2023-10-19T00:16:06;21.48;;;14.50;;
22240;SDS011;11289;52.524;13.694;2023-10-19T00:18:45;21.25;;;15.45;;
22240;SDS011;11289;52.524;13.694;2023-10-19T00:21:15;15.13;;;11.43;;
22240;SDS011;11289;52.524;13.694;2023-10-19T00:23:51;22.20;;;15.88;;
22240;SDS011;11289;52.524;13.694;2023-10-19T00:26:22;22.40;;;14.48;;
22240;SDS011;11289;52.524;13.694;2023-10-19T00:28:52;23.00;;;15.77;;
22240;SDS011;11289;52.524;13.694;2023-10-19T00:31:21;21.65;;;15.32;;
22240;SDS011;11289;52.524;13.694;2023-10-19T00:33:48;21.35;;;14.88;;
22240;SDS011;11289;52.524;13.694;2023-10-19T00:36:17;23.48;;;14.80;;
22240;SDS011;11289;52.524;13.694;2023-10-19T00:38:46;23.05;;;14.73;;
22240;SDS011;11289;52.524;13.694;2023-10-19T00:41:33;24.15;;;15.90;;
22240;SDS011;11289;52.524;13.694;2023-10-19T00:44:00;20.13;;;14.43;;
22240;SDS011;11289;52.524;13.694;2023-10-19T00:46:30;20.08;;;14.80;;
22240;SDS011;11289;52.524;13.694;2023-10-19T00:49:08;24.38;;;15.63;;
22240;SDS011;11289;52.524;13.694;2023-10-19T00:51:39;19.92;;;13.95;;
22240;SDS011;11289;52.524;13.694;2023-10-19T00:54:27;20.05;;;14.63;;
22240;SDS011;11289;52.524;13.694;2023-10-19T00:56:59;25.17;;;15.98;;
22240;SDS011;11289;52.524;13.694;2023-10-19T00:59:34;20.92;;;15.63;;
22240;SDS011;11289;52.524;13.694;2023-10-19T01:02:22;21.02;;;15.18;;
22240;SDS011;11289;52.524;13.694;2023-10-19T01:04:52;20.90;;;14.35;;
22240;SDS011;11289;52.524;13.694;2023-10-19T01:07:25;23.70;;;15.32;;
22240;SDS011;11289;52.524;13.694;2023-10-19T01:09:55;24.70;;;15.25;;
22240;SDS011;11289;52.524;13.694;2023-10-19T01:12:26;19.67;;;15.23;;
22240;SDS011;11289;52.524;13.694;2023-10-19T01:15:08;24.42;;;16.48;;
22240;SDS011;11289;52.524;13.694;2023-10-19T01:17:39;25.65;;;15.45;;
22240;SDS011;11289;52.524;13.694;2023-10-19T01:20:10;24.15;;;15.75;;
22240;SDS011;11289;52.524;13.694;2023-10-19T01:22:57;22.35;;;15.43;;
22240;SDS011;11289;52.524;13.694;2023-10-19T01:25:46;22.17;;;14.75;;
22240;SDS011;11289;52.524;13.694;2023-10-19T01:28:20;25.58;;;15.88;;
22240;SDS011;11289;52.524;13.694;2023-10-19T01:30:51;24.30;;;16.13;;
22240;SDS011;11289;52.524;13.694;2023-10-19T01:33:17;21.70;;;15.73;;
22240;SDS011;11289;52.524;13.694;2023-10-19T01:35:47;22.88;;;16.60;;
22240;SDS011;11289;52.524;13.694;2023-10-19T01:38:32;25.30;;;16.55;;
22240;SDS011;11289;52.524;13.694;2023-10-19T01:40:58;23.65;;;16.25;;
22240;SDS011;11289;52.524;13.694;2023-10-19T01:43:28;20.73;;;15.50;;
22240;SDS011;11289;52.524;13.694;2023-10-19T01:45:57;22.17;;;14.77;;
22240;SDS011;11289;52.524;13.694;2023-10-19T01:48:29;23.50;;;15.13;;
22240;SDS011;11289;52.524;13.694;2023-10-19T01:51:03;24.17;;;15.10;;
22240;SDS011;11289;52.524;13.694;2023-10-19T01:53:34;26.60;;;16.33;;
22240;SDS011;11289;52.524;13.694;2023-10-19T01:56:02;23.40;;;15.60;;
22240;SDS011;11289;52.524;13.694;2023-10-19T01:58:31;24.40;;;15.40;;
22240;SDS011;11289;52.524;13.694;2023-10-19T02:01:02;23.33;;;16.15;;
22240;SDS011;11289;52.524;13.694;2023-10-19T02:03:33;24.27;;;16.38;;
22240;SDS011;11289;52.524;13.694;2023-10-19T02:06:01;25.02;;;17.77;;
22240;SDS011;11289;52.524;13.694;2023-10-19T02:08:48;24.92;;;16.05;;
22240;SDS011;11289;52.524;13.694;2023-10-19T02:11:22;24.45;;;16.88;;
22240;SDS011;11289;52.524;13.694;2023-10-19T02:13:50;26.52;;;16.63;;
22240;SDS011;11289;52.524;13.694;2023-10-19T02:16:18;24.38;;;16.48;;
22240;SDS011;11289;52.524;13.694;2023-10-19T02:18:55;24.85;;;17.10;;
22240;SDS011;11289;52.524;13.694;2023-10-19T02:21:21;26.77;;;16.48;;
22240;SDS011;11289;52.524;13.694;2023-10-19T02:23:48;25.40;;;17.05;;
22240;SDS011;11289;52.524;13.694;2023-10-19T02:26:16;26.17;;;17.55;;
22240;SDS011;11289;52.524;13.694;2023-10-19T02:28:46;24.45;;;16.80;;
22240;SDS011;11289;52.524;13.694;2023-10-19T02:31:12;26.65;;;17.65;;
22240;SDS011;11289;52.524;13.694;2023-10-19T02:33:44;25.25;;;16.13;;
22240;SDS011;11289;52.524;13.694;2023-10-19T02:36:20;26.88;;;17.75;;
22240;SDS011;11289;52.524;13.694;2023-10-19T02:38:46;25.17;;;16.30;;
22240;SDS011;11289;52.524;13.694;2023-10-19T02:41:17;26.10;;;17.17;;
22240;SDS011;11289;52.524;13.694;2023-10-19T02:43:45;27.23;;;15.95;;
22240;SDS011;11289;52.524;13.694;2023-10-19T02:46:13;26.60;;;16.98;;
22240;SDS011;11289;52.524;13.694;2023-10-19T02:48:39;22.58;;;16.95;;
22240;SDS011;11289;52.524;13.694;2023-10-19T02:51:10;24.55;;;16.05;;
22240;SDS011;11289;52.524;13.694;2023-10-19T02:53:37;25.60;;;16.65;;
22240;SDS011;11289;52.524;13.694;2023-10-19T02:56:14;30.70;;;18.13;;
22240;SDS011;11289;52.524;13.694;2023-10-19T02:58:45;26.90;;;17.42;;
22240;SDS011;11289;52.524;13.694;2023-10-19T03:01:15;28.10;;;17.80;;
22240;SDS011;11289;52.524;13.694;2023-10-19T03:03:50;26.10;;;16.98;;
22240;SDS011;11289;52.524;13.694;2023-10-19T03:06:22;25.08;;;17.48;;
22240;SDS011;11289;52.524;13.694;2023-10-19T03:08:49;25.30;;;17.02;;
22240;SDS011;11289;52.524;13.694;2023-10-19T03:11:27;25.70;;;17.77;;
22240;SDS011;11289;52.524;13.694;2023-10-19T03:13:54;25.77;;;18.25;;
22240;SDS011;11289;52.524;13.694;2023-10-19T03:16:21;25.23;;;16.75;;
22240;SDS011;11289;52.524;13.694;2023-10-19T03:18:49;24.25;;;17.80;;
22240;SDS011;11289;52.524;13.694;2023-10-19T03:21:16;23.33;;;16.45;;
22240;SDS011;11289;52.524;13.694;2023-10-19T03:23:42;26.20;;;17.95;;
22240;SDS011;11289;52.524;13.694;2023-10-19T03:26:08;29.40;;;17.25;;
22240;SDS011;11289;52.524;13.694;2023-10-19T03:28:50;24.38;;;17.02;;
22240;SDS011;11289;52.524;13.694;2023-10-19T03:31:21;25.40;;;17.45;;
22240;SDS011;11289;52.524;13.694;2023-10-19T03:33:49;28.55;;;19.45;;
22240;SDS011;11289;52.524;13.694;2023-10-19T03:36:23;28.17;;;17.50;;
22240;SDS011;11289;52.524;13.694;2023-10-19T03:38:50;26.77;;;17.40;;
22240;SDS011;11289;52.524;13.694;2023-10-19T03:41:18;27.70;;;18.02;;
22240;SDS011;11289;52.524;13.694;2023-10-19T03:43:51;30.80;;;18.65;;
22240;SDS011;11289;52.524;13.694;2023-10-19T03:46:20;25.17;;;16.85;;
22240;SDS011;11289;52.524;13.694;2023-10-19T03:49:04;25.20;;;18.50;;
22240;SDS011;11289;52.524;13.694;2023-10-19T03:51:39;27.65;;;18.80;;
22240;SDS011;11289;52.524;13.694;2023-10-19T03:54:06;25.90;;;18.88;;
22240;SDS011;11289;52.524;13.694;2023-10-19T03:56:49;22.98;;;17.23;;
22240;SDS011;11289;52.524;13.694;2023-10-19T03:59:16;27.83;;;18.00;;
22240;SDS011;11289;52.524;13.694;2023-10-19T04:01:43;27.08;;;18.05;;
22240;SDS011;11289;52.524;13.694;2023-10-19T04:04:09;27.50;;;18.98;;
22240;SDS011;11289;52.524;13.694;2023-10-19T04:06:36;26.98;;;18.00;;
22240;SDS011;11289;52.524;13.694;2023-10-19T04:09:03;30.58;;;19.40;;
22240;SDS011;11289;52.524;13.694;2023-10-19T04:11:32;27.10;;;18.17;;
22240;SDS011;11289;52.524;13.694;2023-10-19T04:13:59;28.00;;;18.25;;
22240;SDS011;11289;52.524;13.694;2023-10-19T04:16:29;26.77;;;18.92;;
22240;SDS011;11289;52.524;13.694;2023-10-19T04:18:57;31.95;;;19.27;;
22240;SDS011;11289;52.524;13.694;2023-10-19T04:21:26;27.33;;;18.98;;
22240;SDS011;11289;52.524;13.694;2023-10-19T04:23:52;31.15;;;19.38;;
22240;SDS011;11289;52.524;13.694;2023-10-19T04:26:18;27.90;;;19.05;;
22240;SDS011;11289;52.524;13.694;2023-10-19T04:28:44;26.48;;;18.08;;
22240;SDS011;11289;52.524;13.694;2023-10-19T04:31:13;26.38;;;19.02;;
22240;SDS011;11289;52.524;13.694;2023-10-19T04:33:40;25.95;;;18.52;;
22240;SDS011;11289;52.524;13.694;2023-10-19T04:36:08;27.85;;;18.98;;
22240;SDS011;11289;52.524;13.694;2023-10-19T04:38:37;28.52;;;19.25;;
22240;SDS011;11289;52.524;13.694;2023-10-19T04:41:04;28.70;;;18.70;;
22240;SDS011;11289;52.524;13.694;2023-10-19T04:43:33;26.48;;;18.77;;
22240;SDS011;11289;52.524;13.694;2023-10-19T04:46:00;28.77;;;19.75;;
22240;SDS011;11289;52.524;13.694;2023-10-19T04:48:33;28.63;;;18.75;;
22240;SDS011;11289;52.524;13.694;2023-10-19T04:51:01;31.80;;;18.75;;
22240;SDS011;11289;52.524;13.694;2023-10-19T04:53:30;28.45;;;19.40;;
22240;SDS011;11289;52.524;13.694;2023-10-19T04:55:57;29.27;;;19.08;;
22240;SDS011;11289;52.524;13.694;2023-10-19T04:58:26;28.13;;;18.90;;
22240;SDS011;11289;52.524;13.694;2023-10-19T05:00:54;30.65;;;19.38;;
22240;SDS011;11289;52.524;13.694;2023-10-19T05:03:20;29.00;;;19.65;;
22240;SDS011;11289;52.524;13.694;2023-10-19T05:05:47;30.92;;;19.17;;
22240;SDS011;11289;52.524;13.694;2023-10-19T05:08:13;29.13;;;19.95;;
22240;SDS011;11289;52.524;13.694;2023-10-19T05:10:38;31.23;;;19.88;;
22240;SDS011;11289;52.524;13.694;2023-10-19T05:13:06;31.85;;;20.38;;
22240;SDS011;11289;52.524;13.694;2023-10-19T05:15:32;28.30;;;19.50;;
22240;SDS011;11289;52.524;13.694;2023-10-19T05:17:59;25.95;;;19.67;;
22240;SDS011;11289;52.524;13.694;2023-10-19T05:20:26;25.77;;;18.50;;
22240;SDS011;11289;52.524;13.694;2023-10-19T05:22:52;29.05;;;20.02;;
22240;SDS011;11289;52.524;13.694;2023-10-19T05:25:18;30.33;;;20.83;;
22240;SDS011;11289;52.524;13.694;2023-10-19T05:27:44;30.42;;;20.80;;
22240;SDS011;11289;52.524;13.694;2023-10-19T05:30:11;29.45;;;20.25;;
22240;SDS011;11289;52.524;13.694;2023-10-19T05:32:37;30.77;;;19.90;;
22240;SDS011;11289;52.524;13.694;2023-10-19T05:35:04;28.38;;;20.05;;
22240;SDS011;11289;52.524;13.694;2023-10-19T05:37:30;32.78;;;20.27;;
22240;SDS011;11289;52.524;13.694;2023-10-19T05:39:57;30.77;;;20.05;;
22240;SDS011;11289;52.524;13.694;2023-10-19T05:42:24;33.67;;;20.00;;
22240;SDS011;11289;52.524;13.694;2023-10-19T05:44:50;34.92;;;20.48;;
22240;SDS011;11289;52.524;13.694;2023-10-19T05:47:17;27.23;;;19.95;;
22240;SDS011;11289;52.524;13.694;2023-10-19T05:49:43;27.58;;;19.83;;
22240;SDS011;11289;52.524;13.694;2023-10-19T05:52:09;28.70;;;19.27;;
22240;SDS011;11289;52.524;13.694;2023-10-19T05:54:36;32.35;;;21.08;;
22240;SDS011;11289;52.524;13.694;2023-10-19T05:57:03;32.70;;;21.20;;
22240;SDS011;11289;52.524;13.694;2023-10-19T05:59:34;31.05;;;21.20;;
22240;SDS011;11289;52.524;13.694;2023-10-19T06:02:00;32.13;;;21.42;;
22240;SDS011;11289;52.524;13.694;2023-10-19T06:04:26;34.78;;;21.52;;
22240;SDS011;11289;52.524;13.694;2023-10-19T06:06:51;30.75;;;21.58;;
22240;SDS011;11289;52.524;13.694;2023-10-19T06:09:17;28.85;;;19.98;;
22240;SDS011;11289;52.524;13.694;2023-10-19T06:11:45;33.20;;;21.67;;
22240;SDS011;11289;52.524;13.694;2023-10-19T06:14:11;34.20;;;21.70;;
22240;SDS011;11289;52.524;13.694;2023-10-19T06:16:37;31.38;;;19.85;;
22240;SDS011;11289;52.524;13.694;2023-10-19T06:19:06;31.40;;;20.92;;
22240;SDS011;11289;52.524;13.694;2023-10-19T06:21:31;33.53;;;20.55;;
22240;SDS011;11289;52.524;13.694;2023-10-19T06:23:59;32.08;;;18.42;;
22240;SDS011;11289;52.524;13.694;2023-10-19T06:26:25;29.05;;;19.20;;
22240;SDS011;11289;52.524;13.694;2023-10-19T06:28:51;29.73;;;20.30;;
22240;SDS011;11289;52.524;13.694;2023-10-19T06:31:22;29.75;;;19.77;;
22240;SDS011;11289;52.524;13.694;2023-10-19T06:33:49;28.08;;;19.80;;
22240;SDS011;11289;52.524;13.694;2023-10-19T06:36:15;30.23;;;20.67;;
22240;SDS011;11289;52.524;13.694;2023-10-19T06:38:41;33.45;;;20.60;;
22240;SDS011;11289;52.524;13.694;2023-10-19T06:41:11;25.30;;;18.85;;
22240;SDS011;11289;52.524;13.694;2023-10-19T06:43:38;26.48;;;20.13;;
22240;SDS011;11289;52.524;13.694;2023-10-19T06:46:05;29.80;;;20.10;;
22240;SDS011;11289;52.524;13.694;2023-10-19T06:48:32;30.17;;;20.20;;
22240;SDS011;11289;52.524;13.694;2023-10-19T06:50:58;35.60;;;23.27;;
22240;SDS011;11289;52.524;13.694;2023-10-19T06:53:26;34.97;;;22.50;;
22240;SDS011;11289;52.524;13.694;2023-10-19T06:55:51;31.85;;;21.55;;
22240;SDS011;11289;52.524;13.694;2023-10-19T06:58:18;31.45;;;22.15;;
22240;SDS011;11289;52.524;13.694;2023-10-19T07:00:46;32.72;;;21.65;;
22240;SDS011;11289;52.524;13.694;2023-10-19T07:03:21;30.45;;;21.77;;
22240;SDS011;11289;52.524;13.694;2023-10-19T07:05:48;29.40;;;19.85;;
22240;SDS011;11289;52.524;13.694;2023-10-19T07:08:15;27.25;;;19.83;;
22240;SDS011;11289;52.524;13.694;2023-10-19T07:10:41;32.17;;;21.17;;
22240;SDS011;11289;52.524;13.694;2023-10-19T07:13:08;32.85;;;21.42;;
22240;SDS011;11289;52.524;13.694;2023-10-19T07:15:34;30.52;;;19.67;;
22240;SDS011;11289;52.524;13.694;2023-10-19T07:18:00;31.83;;;21.25;;
22240;SDS011;11289;52.524;13.694;2023-10-19T07:20:26;30.92;;;19.92;;
22240;SDS011;11289;52.524;13.694;2023-10-19T07:22:54;29.80;;;19.75;;
22240;SDS011;11289;52.524;13.694;2023-10-19T07:25:21;31.45;;;21.30;;
22240;SDS011;11289;52.524;13.694;2023-10-19T07:27:49;29.88;;;19.75;;
22240;SDS011;11289;52.524;13.694;2023-10-19T07:30:16;32.08;;;21.10;;
22240;SDS011;11289;52.524;13.694;2023-10-19T07:32:49;31.10;;;19.63;;
22240;SDS011;11289;52.524;13.694;2023-10-19T07:35:27;28.42;;;18.15;;
22240;SDS011;11289;52.524;13.694;2023-10-19T07:37:54;28.35;;;19.60;;
22240;SDS011;11289;52.524;13.694;2023-10-19T07:40:22;28.58;;;19.83;;
22240;SDS011;11289;52.524;13.694;2023-10-19T07:42:49;27.42;;;20.42;;
22240;SDS011;11289;52.524;13.694;2023-10-19T07:45:18;28.83;;;18.52;;
22240;SDS011;11289;52.524;13.694;2023-10-19T07:47:45;30.17;;;20.45;;
22240;SDS011;11289;52.524;13.694;2023-10-19T07:50:12;28.60;;;20.38;;
22240;SDS011;11289;52.524;13.694;2023-10-19T07:52:45;31.88;;;19.95;;
22240;SDS011;11289;52.524;13.694;2023-10-19T07:55:14;29.27;;;19.95;;
22240;SDS011;11289;52.524;13.694;2023-10-19T07:57:44;28.58;;;19.45;;
22240;SDS011;11289;52.524;13.694;2023-10-19T08:00:10;29.33;;;20.52;;
22240;SDS011;11289;52.524;13.694;2023-10-19T08:02:40;30.98;;;20.40;;
22240;SDS011;11289;52.524;13.694;2023-10-19T08:05:07;29.00;;;21.02;;
22240;SDS011;11289;52.524;13.694;2023-10-19T08:07:34;30.20;;;20.20;;
22240;SDS011;11289;52.524;13.694;2023-10-19T08:10:02;27.27;;;19.17;;
22240;SDS011;11289;52.524;13.694;2023-10-19T08:12:31;32.45;;;20.15;;
22240;SDS011;11289;52.524;13.694;2023-10-19T08:14:58;29.63;;;19.75;;
22240;SDS011;11289;52.524;13.694;2023-10-19T08:17:24;27.30;;;19.38;;
22240;SDS011;11289;52.524;13.694;2023-10-19T08:19:50;30.30;;;20.23;;
22240;SDS011;11289;52.524;13.694;2023-10-19T08:22:16;29.08;;;20.35;;
22240;SDS011;11289;52.524;13.694;2023-10-19T08:24:43;26.15;;;19.80;;
22240;SDS011;11289;52.524;13.694;2023-10-19T08:27:09;29.13;;;20.30;;
22240;SDS011;11289;52.524;13.694;2023-10-19T08:29:36;31.50;;;20.65;;
22240;SDS011;11289;52.524;13.694;2023-10-19T08:32:03;30.73;;;21.10;;
22240;SDS011;11289;52.524;13.694;2023-10-19T08:34:29;30.38;;;20.25;;
22240;SDS011;11289;52.524;13.694;2023-10-19T08:36:55;31.55;;;20.00;;
22240;SDS011;11289;52.524;13.694;2023-10-19T08:39:21;29.38;;;19.60;;
22240;SDS011;11289;52.524;13.694;2023-10-19T08:41:50;28.52;;;19.50;;
22240;SDS011;11289;52.524;13.694;2023-10-19T08:44:21;30.42;;;19.75;;
22240;SDS011;11289;52.524;13.694;2023-10-19T08:46:47;30.45;;;20.25;;
22240;SDS011;11289;52.524;13.694;2023-10-19T08:49:16;31.90;;;20.33;;
22240;SDS011;11289;52.524;13.694;2023-10-19T08:51:43;32.20;;;20.60;;
22240;SDS011;11289;52.524;13.694;2023-10-19T08:54:11;28.80;;;19.15;;
22240;SDS011;11289;52.524;13.694;2023-10-19T08:56:38;27.20;;;18.17;;
22240;SDS011;11289;52.524;13.694;2023-10-19T08:59:07;28.83;;;19.52;;
22240;SDS011;11289;52.524;13.694;2023-10-19T09:01:33;28.60;;;19.95;;
22240;SDS011;11289;52.524;13.694;2023-10-19T09:04:02;34.25;;;19.65;;
22240;SDS011;11289;52.524;13.694;2023-10-19T09:06:34;29.13;;;19.08;;
22240;SDS011;11289;52.524;13.694;2023-10-19T09:09:07;28.67;;;19.20;;
22240;SDS011;11289;52.524;13.694;2023-10-19T09:11:35;33.90;;;20.30;;
22240;SDS011;11289;52.524;13.694;2023-10-19T09:14:01;27.88;;;18.98;;
22240;SDS011;11289;52.524;13.694;2023-10-19T09:16:29;28.98;;;19.95;;
22240;SDS011;11289;52.524;13.694;2023-10-19T09:18:56;31.02;;;20.85;;
22240;SDS011;11289;52.524;13.694;2023-10-19T09:21:22;36.80;;;23.65;;
22240;SDS011;11289;52.524;13.694;2023-10-19T09:23:55;32.50;;;21.40;;
22240;SDS011;11289;52.524;13.694;2023-10-19T09:26:22;39.97;;;24.42;;
22240;SDS011;11289;52.524;13.694;2023-10-19T09:28:49;34.70;;;22.77;;
22240;SDS011;11289;52.524;13.694;2023-10-19T09:31:17;32.72;;;22.00;;
22240;SDS011;11289;52.524;13.694;2023-10-19T09:33:45;32.95;;;22.45;;
22240;SDS011;11289;52.524;13.694;2023-10-19T09:36:12;30.38;;;19.95;;
22240;SDS011;11289;52.524;13.694;2023-10-19T09:38:46;28.52;;;19.75;;
22240;SDS011;11289;52.524;13.694;2023-10-19T09:41:17;27.73;;;20.15;;
22240;SDS011;11289;52.524;13.694;2023-10-19T09:43:45;28.50;;;19.38;;
22240;SDS011;11289;52.524;13.694;2023-10-19T09:46:20;27.75;;;19.60;;
22240;SDS011;11289;52.524;13.694;2023-10-19T09:48:54;28.67;;;20.05;;
22240;SDS011;11289;52.524;13.694;2023-10-19T09:51:21;26.73;;;19.60;;
22240;SDS011;11289;52.524;13.694;2023-10-19T09:53:51;28.52;;;20.38;;
22240;SDS011;11289;52.524;13.694;2023-10-19T09:56:21;26.17;;;19.77;;
22240;SDS011;11289;52.524;13.694;2023-10-19T09:58:57;27.42;;;20.23;;
22240;SDS011;11289;52.524;13.694;2023-10-19T10:02:03;34.55;;;20.73;;
22240;SDS011;11289;52.524;13.694;2023-10-19T10:04:38;26.55;;;20.17;;
22240;SDS011;11289;52.524;13.694;2023-10-19T10:07:06;30.17;;;19.95;;
22240;SDS011;11289;52.524;13.694;2023-10-19T10:09:35;27.67;;;20.08;;
22240;SDS011;11289;52.524;13.694;2023-10-19T10:12:16;29.58;;;19.90;;
22240;SDS011;11289;52.524;13.694;2023-10-19T10:14:54;31.05;;;21.10;;
22240;SDS011;11289;52.524;13.694;2023-10-19T10:17:25;30.17;;;20.40;;
22240;SDS011;11289;52.524;13.694;2023-10-19T10:19:55;31.80;;;21.42;;
22240;SDS011;11289;52.524;13.694;2023-10-19T10:22:22;29.65;;;20.38;;
22240;SDS011;11289;52.524;13.694;2023-10-19T10:24:53;27.70;;;20.33;;
22240;SDS011;11289;52.524;13.694;2023-10-19T10:27:21;31.10;;;21.75;;
22240;SDS011;11289;52.524;13.694;2023-10-19T10:29:54;27.55;;;20.10;;
22240;SDS011;11289;52.524;13.694;2023-10-19T10:35:09;29.48;;;20.15;;
22240;SDS011;11289;52.524;13.694;2023-10-19T10:37:38;30.20;;;20.27;;
22240;SDS011;11289;52.524;13.694;2023-10-19T10:40:11;29.05;;;20.15;;
22240;SDS011;11289;52.524;13.694;2023-10-19T10:42:37;29.70;;;19.55;;
22240;SDS011;11289;52.524;13.694;2023-10-19T10:45:07;34.10;;;20.50;;
22240;SDS011;11289;52.524;13.694;2023-10-19T10:47:44;25.65;;;20.20;;
22240;SDS011;11289;52.524;13.694;2023-10-19T10:50:10;28.88;;;20.48;;
22240;SDS011;11289;52.524;13.694;2023-10-19T10:52:36;28.90;;;20.08;;
22240;SDS011;11289;52.524;13.694;2023-10-19T10:55:09;31.05;;;20.85;;
22240;SDS011;11289;52.524;13.694;2023-10-19T10:57:37;28.20;;;20.67;;
22240;SDS011;11289;52.524;13.694;2023-10-19T11:00:05;26.27;;;19.67;;
22240;SDS011;11289;52.524;13.694;2023-10-19T11:02:34;28.10;;;19.75;;
22240;SDS011;11289;52.524;13.694;2023-10-19T11:05:01;28.27;;;20.95;;
22240;SDS011;11289;52.524;13.694;2023-10-19T11:07:28;32.40;;;21.10;;
22240;SDS011;11289;52.524;13.694;2023-10-19T11:09:55;27.63;;;20.17;;
22240;SDS011;11289;52.524;13.694;2023-10-19T11:12:21;28.25;;;20.70;;
22240;SDS011;11289;52.524;13.694;2023-10-19T11:15:02;32.30;;;21.35;;
22240;SDS011;11289;52.524;13.694;2023-10-19T11:17:42;28.95;;;19.40;;
22240;SDS011;11289;52.524;13.694;2023-10-19T11:20:09;26.40;;;20.35;;
22240;SDS011;11289;52.524;13.694;2023-10-19T11:22:47;30.05;;;21.33;;
22240;SDS011;11289;52.524;13.694;2023-10-19T11:25:19;27.77;;;18.27;;
22240;SDS011;11289;52.524;13.694;2023-10-19T11:27:46;31.95;;;21.50;;
22240;SDS011;11289;52.524;13.694;2023-10-19T11:30:36;31.95;;;20.98;;
22240;SDS011;11289;52.524;13.694;2023-10-19T11:33:01;25.60;;;19.23;;
22240;SDS011;11289;52.524;13.694;2023-10-19T11:35:30;29.42;;;20.42;;
22240;SDS011;11289;52.524;13.694;2023-10-19T11:37:58;29.50;;;21.15;;
22240;SDS011;11289;52.524;13.694;2023-10-19T11:40:26;26.63;;;19.27;;
22240;SDS011;11289;52.524;13.694;2023-10-19T11:42:54;29.08;;;19.25;;
22240;SDS011;11289;52.524;13.694;2023-10-19T11:45:26;30.00;;;21.70;;
22240;SDS011;11289;52.524;13.694;2023-10-19T11:47:52;24.52;;;19.65;;
22240;SDS011;11289;52.524;13.694;2023-10-19T11:50:18;28.08;;;20.05;;
22240;SDS011;11289;52.524;13.694;2023-10-19T11:52:45;34.50;;;22.33;;
22240;SDS011;11289;52.524;13.694;2023-10-19T11:55:12;29.30;;;20.42;;
22240;SDS011;11289;52.524;13.694;2023-10-19T11:57:42;31.88;;;20.90;;
22240;SDS011;11289;52.524;13.694;2023-10-19T12:00:10;29.83;;;21.42;;
22240;SDS011;11289;52.524;13.694;2023-10-19T12:02:45;27.77;;;20.70;;
22240;SDS011;11289;52.524;13.694;2023-10-19T12:05:11;32.60;;;20.52;;
22240;SDS011;11289;52.524;13.694;2023-10-19T12:07:37;28.80;;;18.85;;
22240;SDS011;11289;52.524;13.694;2023-10-19T12:10:07;28.13;;;21.02;;
22240;SDS011;11289;52.524;13.694;2023-10-19T12:12:34;29.23;;;20.52;;
22240;SDS011;11289;52.524;13.694;2023-10-19T12:15:02;26.02;;;19.45;;
22240;SDS011;11289;52.524;13.694;2023-10-19T12:17:34;28.17;;;21.55;;
22240;SDS011;11289;52.524;13.694;2023-10-19T12:20:01;28.75;;;21.00;;
22240;SDS011;11289;52.524;13.694;2023-10-19T12:22:27;27.13;;;20.15;;
22240;SDS011;11289;52.524;13.694;2023-10-19T12:24:57;29.48;;;20.38;;
22240;SDS011;11289;52.524;13.694;2023-10-19T12:27:23;29.42;;;22.20;;
22240;SDS011;11289;52.524;13.694;2023-10-19T12:29:54;31.25;;;20.73;;
22240;SDS011;11289;52.524;13.694;2023-10-19T12:32:21;31.75;;;22.08;;
22240;SDS011;11289;52.524;13.694;2023-10-19T12:34:47;33.85;;;21.75;;
22240;SDS011;11289;52.524;13.694;2023-10-19T12:37:19;30.90;;;21.25;;
22240;SDS011;11289;52.524;13.694;2023-10-19T12:39:45;29.65;;;21.23;;
22240;SDS011;11289;52.524;13.694;2023-10-19T12:42:15;32.40;;;22.33;;
22240;SDS011;11289;52.524;13.694;2023-10-19T12:44:41;32.05;;;22.42;;
22240;SDS011;11289;52.524;13.694;2023-10-19T12:47:09;34.10;;;23.02;;
22240;SDS011;11289;52.524;13.694;2023-10-19T12:49:39;29.58;;;22.33;;
22240;SDS011;11289;52.524;13.694;2023-10-19T12:52:06;31.05;;;21.80;;
22240;SDS011;11289;52.524;13.694;2023-10-19T12:54:33;34.05;;;22.27;;
22240;SDS011;11289;52.524;13.694;2023-10-19T12:57:06;32.58;;;21.77;;
22240;SDS011;11289;52.524;13.694;2023-10-19T12:59:34;29.00;;;21.95;;
22240;SDS011;11289;52.524;13.694;2023-10-19T13:02:03;31.73;;;22.58;;
22240;SDS011;11289;52.524;13.694;2023-10-19T13:04:29;28.92;;;22.30;;
22240;SDS011;11289;52.524;13.694;2023-10-19T13:06:56;32.80;;;21.55;;
22240;SDS011;11289;52.524;13.694;2023-10-19T13:09:24;33.03;;;22.10;;
22240;SDS011;11289;52.524;13.694;2023-10-19T13:11:59;29.85;;;21.92;;
22240;SDS011;11289;52.524;13.694;2023-10-19T13:14:26;35.22;;;23.33;;
22240;SDS011;11289;52.524;13.694;2023-10-19T13:16:53;29.52;;;21.75;;
22240;SDS011;11289;52.524;13.694;2023-10-19T13:19:23;35.78;;;23.05;;
22240;SDS011;11289;52.524;13.694;2023-10-19T13:21:52;32.13;;;22.50;;
22240;SDS011;11289;52.524;13.694;2023-10-19T13:24:19;31.17;;;22.10;;
22240;SDS011;11289;52.524;13.694;2023-10-19T13:26:50;30.45;;;22.67;;
22240;SDS011;11289;52.524;13.694;2023-10-19T13:29:18;31.55;;;22.20;;
22240;SDS011;11289;52.524;13.694;2023-10-19T13:31:45;31.80;;;23.05;;
22240;SDS011;11289;52.524;13.694;2023-10-19T13:34:16;39.30;;;23.98;;
22240;SDS011;11289;52.524;13.694;2023-10-19T13:36:43;31.90;;;23.08;;
22240;SDS011;11289;52.524;13.694;2023-10-19T13:39:11;34.58;;;23.98;;
22240;SDS011;11289;52.524;13.694;2023-10-19T13:41:42;32.33;;;23.30;;
22240;SDS011;11289;52.524;13.694;2023-10-19T13:44:08;34.97;;;25.25;;
22240;SDS011;11289;52.524;13.694;2023-10-19T13:46:35;37.03;;;27.08;;
22240;SDS011;11289;52.524;13.694;2023-10-19T13:49:01;34.35;;;23.77;;
22240;SDS011;11289;52.524;13.694;2023-10-19T13:51:29;35.17;;;24.20;;
22240;SDS011;11289;52.524;13.694;2023-10-19T13:53:55;38.63;;;25.83;;
22240;SDS011;11289;52.524;13.694;2023-10-19T13:56:21;38.33;;;26.05;;
22240;SDS011;11289;52.524;13.694;2023-10-19T13:58:47;34.35;;;24.50;;
22240;SDS011;11289;52.524;13.694;2023-10-19T14:01:14;35.55;;;25.10;;
22240;SDS011;11289;52.524;13.694;2023-10-19T14:03:40;34.42;;;24.95;;
22240;SDS011;11289;52.524;13.694;2023-10-19T14:06:11;38.10;;;26.73;;
22240;SDS011;11289;52.524;13.694;2023-10-19T14:08:40;34.22;;;26.13;;
22240;SDS011;11289;52.524;13.694;2023-10-19T14:11:06;34.58;;;25.85;;
22240;SDS011;11289;52.524;13.694;2023-10-19T14:13:33;34.42;;;24.35;;
22240;SDS011;11289;52.524;13.694;2023-10-19T14:16:04;34.88;;;24.63;;
22240;SDS011;11289;52.524;13.694;2023-10-19T14:18:31;34.97;;;25.33;;
22240;SDS011;11289;52.524;13.694;2023-10-19T14:20:57;34.65;;;24.95;;
22240;SDS011;11289;52.524;13.694;2023-10-19T14:23:23;35.10;;;25.27;;